Time;durP1;ratioP1;P1;durP2;ratioP2;P2;SDS_P1;SDS_P2;PMS_P1;PMS_P2;Temp;Humidity;BMP_temperature;BMP_pressure;BME280_temperature;BME280_humidity;BME280_pressure;Samples;Min_cycle;Max_cycle;Signal;HPM_P1;HPM_P2
2021/07/09 00:01:25;;;;;;;;;;;16.90;99.30;;;;;;5057429;28;19968;-67
2021/07/09 00:03:51;;;;;;;;;;;16.80;99.30;;;;;;5055979;28;19961;-68
2021/07/09 00:06:19;;;;;;;;;;;16.90;99.30;;;;;;5059214;28;20041;-67
2021/07/09 00:08:45;;;;;;;;;;;16.90;99.30;;;;;;5058336;28;20059;-67
2021/07/09 00:11:10;;;;;;;;;;;16.90;99.30;;;;;;5059270;28;19996;-68
2021/07/09 00:13:36;;;;;;;;;;;16.80;99.30;;;;;;5059063;28;19928;-67
2021/07/09 00:16:02;;;;;;;;;;;16.80;99.30;;;;;;5036688;28;19960;-66
2021/07/09 00:18:27;;;;;;;;;;;16.80;99.30;;;;;;5057536;28;19924;-68
2021/07/09 00:20:53;;;;;;;;;;;16.80;99.30;;;;;;5056244;28;19916;-67
2021/07/09 00:23:19;;;;;;;;;;;16.90;99.30;;;;;;5055947;28;19920;-67
2021/07/09 00:25:44;;;;;;;;;;;16.90;99.30;;;;;;5056102;28;19916;-67
2021/07/09 00:28:09;;;;;;;;;;;16.90;99.20;;;;;;5053308;28;19913;-66
2021/07/09 00:30:35;;;;;;;;;;;16.90;99.20;;;;;;5057159;28;20254;-68
2021/07/09 00:33:00;;;;;;;;;;;16.90;99.30;;;;;;5052400;28;20424;-67
2021/07/09 00:35:26;;;;;;;;;;;16.80;99.20;;;;;;5059757;28;19913;-67
2021/07/09 00:37:51;;;;;;;;;;;16.80;99.20;;;;;;5058869;28;20321;-68
2021/07/09 00:40:17;;;;;;;;;;;16.90;99.20;;;;;;5059706;28;19913;-68
2021/07/09 00:42:42;;;;;;;;;;;16.90;99.20;;;;;;5059236;28;19920;-65
2021/07/09 00:45:08;;;;;;;;;;;16.90;99.20;;;;;;5057387;28;19912;-68
2021/07/09 00:47:34;;;;;;;;;;;16.90;99.20;;;;;;5058336;28;19928;-68
2021/07/09 00:50:00;;;;;;;;;;;16.90;99.20;;;;;;5040172;28;19923;-67
2021/07/09 00:52:26;;;;;;;;;;;17.00;99.20;;;;;;5055104;28;19924;-68
2021/07/09 00:54:52;;;;;;;;;;;16.90;99.20;;;;;;5057133;28;19940;-69
2021/07/09 00:57:17;;;;;;;;;;;17.00;99.20;;;;;;5053927;28;19978;-67
2021/07/09 00:59:43;;;;;;;;;;;17.00;99.20;;;;;;5036462;28;19961;-67
2021/07/09 01:02:09;;;;;;;;;;;16.90;99.10;;;;;;5059031;28;19924;-69
2021/07/09 01:04:34;;;;;;;;;;;17.00;99.30;;;;;;5060536;28;19957;-67
2021/07/09 01:07:00;;;;;;;;;;;17.00;99.30;;;;;;5053431;28;20020;-69
2021/07/09 01:09:25;;;;;;;;;;;17.10;99.30;;;;;;5060552;28;20362;-67
2021/07/09 01:11:51;;;;;;;;;;;17.00;99.30;;;;;;5058563;28;19956;-67
2021/07/09 01:14:17;;;;;;;;;;;17.00;99.30;;;;;;5061619;28;19974;-66
2021/07/09 01:16:43;;;;;;;;;;;17.00;99.20;;;;;;5055813;28;19924;-67
2021/07/09 01:19:13;;;;;;;;;;;17.10;99.30;;;;;;5059401;28;20234;-67
2021/07/09 01:21:40;;;;;;;;;;;17.00;99.20;;;;;;5061802;28;20273;-69
2021/07/09 01:24:05;;;;;;;;;;;17.10;99.30;;;;;;5058997;28;19913;-66
2021/07/09 01:26:31;;;;;;;;;;;17.00;99.20;;;;;;5054205;28;19927;-68
2021/07/09 01:28:56;;;;;;;;;;;17.10;99.30;;;;;;5057429;28;19931;-67
2021/07/09 01:31:22;;;;;;;;;;;17.10;99.40;;;;;;5056304;28;19976;-67
2021/07/09 01:33:47;;;;;;;;;;;17.20;99.40;;;;;;5057151;28;20060;-67
2021/07/09 01:36:13;;;;;;;;;;;17.20;99.30;;;;;;5051863;28;19916;-68
2021/07/09 01:38:38;;;;;;;;;;;17.20;99.40;;;;;;5055385;28;19916;-67
2021/07/09 01:41:04;;;;;;;;;;;17.10;99.30;;;;;;5040283;28;19913;-67
2021/07/09 01:43:29;;;;;;;;;;;17.10;99.40;;;;;;5059449;28;20369;-68
2021/07/09 01:45:55;;;;;;;;;;;17.20;99.40;;;;;;5053868;28;19928;-67
2021/07/09 01:48:20;;;;;;;;;;;17.30;99.60;;;;;;5060361;28;19928;-66
2021/07/09 01:50:46;;;;;;;;;;;17.20;99.50;;;;;;5060111;28;19920;-68
2021/07/09 01:53:12;;;;;;;;;;;17.20;99.50;;;;;;5061584;28;19924;-66
2021/07/09 01:55:37;;;;;;;;;;;17.30;99.50;;;;;;5061566;28;20509;-69
2021/07/09 01:58:03;;;;;;;;;;;17.30;99.50;;;;;;5059599;28;19931;-67
2021/07/09 02:00:28;;;;;;;;;;;17.20;99.40;;;;;;5057344;28;20008;-67
2021/07/09 02:02:54;;;;;;;;;;;17.20;99.50;;;;;;5061140;28;19917;-67
2021/07/09 02:05:21;;;;;;;;;;;17.20;99.50;;;;;;5061636;28;19928;-67
2021/07/09 02:07:51;;;;;;;;;;;17.10;99.30;;;;;;5061829;28;19912;-68
2021/07/09 02:10:18;;;;;;;;;;;17.10;99.40;;;;;;5053374;28;19989;-67
2021/07/09 02:12:44;;;;;;;;;;;17.10;99.30;;;;;;5059441;28;20218;-67
2021/07/09 02:15:11;;;;;;;;;;;17.10;99.50;;;;;;5063115;28;19921;-68
2021/07/09 02:17:37;;;;;;;;;;;17.00;99.40;;;;;;5056765;28;19974;-66
2021/07/09 02:20:05;;;;;;;;;;;17.00;99.40;;;;;;5058542;28;20280;-68
2021/07/09 02:22:30;;;;;;;;;;;17.00;99.50;;;;;;5059810;28;20393;-67
2021/07/09 02:24:56;;;;;;;;;;;17.00;99.50;;;;;;5056882;28;20376;-69
2021/07/09 02:27:21;;;;;;;;;;;17.00;99.40;;;;;;5057286;28;19955;-68
2021/07/09 02:29:48;;;;;;;;;;;17.10;99.50;;;;;;5055008;28;19913;-68
2021/07/09 02:32:13;;;;;;;;;;;17.10;99.40;;;;;;5058606;28;19920;-66
2021/07/09 02:34:39;;;;;;;;;;;17.00;99.40;;;;;;5057718;28;19920;-68
2021/07/09 02:37:05;;;;;;;;;;;17.00;99.40;;;;;;5057677;28;20002;-68
2021/07/09 02:39:31;;;;;;;;;;;17.00;99.40;;;;;;5045401;28;19920;-69
2021/07/09 02:41:57;;;;;;;;;;;17.00;99.50;;;;;;5059294;28;19973;-66
2021/07/09 02:44:23;;;;;;;;;;;17.00;99.50;;;;;;5061486;28;19912;-67
2021/07/09 02:46:49;;;;;;;;;;;17.00;99.60;;;;;;5061252;28;20085;-67
2021/07/09 02:49:14;;;;;;;;;;;17.00;99.50;;;;;;5063488;28;19916;-68
2021/07/09 02:51:40;;;;;;;;;;;17.00;99.50;;;;;;5063600;28;20569;-69
2021/07/09 02:54:05;;;;;;;;;;;17.10;99.50;;;;;;5053656;28;19990;-67
2021/07/09 02:56:31;;;;;;;;;;;17.10;99.50;;;;;;5060145;28;19931;-67
2021/07/09 02:58:58;;;;;;;;;;;17.00;99.50;;;;;;5063421;28;20106;-67
2021/07/09 03:01:24;;;;;;;;;;;17.10;99.40;;;;;;5063603;28;20314;-67
2021/07/09 03:03:49;;;;;;;;;;;17.10;99.50;;;;;;5062595;28;19917;-67
2021/07/09 03:06:15;;;;;;;;;;;17.10;99.50;;;;;;5061992;28;20035;-68
2021/07/09 03:08:40;;;;;;;;;;;17.10;99.50;;;;;;5062639;28;19957;-67
2021/07/09 03:11:06;;;;;;;;;;;17.20;99.50;;;;;;5063899;28;20338;-66
2021/07/09 03:13:31;;;;;;;;;;;17.20;99.50;;;;;;5060709;28;19920;-69
2021/07/09 03:15:57;;;;;;;;;;;17.10;99.50;;;;;;5062877;28;19916;-66
2021/07/09 03:18:22;;;;;;;;;;;17.10;99.40;;;;;;5063672;28;19913;-66
2021/07/09 03:20:48;;;;;;;;;;;17.10;99.40;;;;;;5061741;28;19936;-68
2021/07/09 03:23:13;;;;;;;;;;;17.10;99.40;;;;;;5062076;28;19912;-66
2021/07/09 03:25:39;;;;;;;;;;;17.10;99.40;;;;;;5057538;28;19999;-66
2021/07/09 03:28:04;;;;;;;;;;;17.10;99.40;;;;;;5056956;28;20323;-67
2021/07/09 03:30:30;;;;;;;;;;;17.10;99.40;;;;;;5039960;28;20758;-67
2021/07/09 03:32:55;;;;;;;;;;;17.00;99.30;;;;;;5062076;28;19912;-66
2021/07/09 03:35:21;;;;;;;;;;;17.00;99.40;;;;;;5062131;28;20411;-67
2021/07/09 03:37:46;;;;;;;;;;;17.10;99.40;;;;;;5053562;28;20334;-67
2021/07/09 03:40:12;;;;;;;;;;;17.10;99.50;;;;;;5042765;28;19920;-66
2021/07/09 03:42:37;;;;;;;;;;;17.10;99.40;;;;;;5060114;28;20389;-66
2021/07/09 03:45:04;;;;;;;;;;;17.20;99.40;;;;;;5056474;28;19989;-68
2021/07/09 03:47:30;;;;;;;;;;;17.10;99.40;;;;;;5056562;28;19924;-68
2021/07/09 03:49:55;;;;;;;;;;;17.10;99.40;;;;;;5060754;28;19939;-68
2021/07/09 03:52:20;;;;;;;;;;;17.10;99.40;;;;;;5062441;28;20249;-68
2021/07/09 03:54:46;;;;;;;;;;;17.20;99.40;;;;;;5058774;28;19916;-71
2021/07/09 03:57:11;;;;;;;;;;;17.10;99.40;;;;;;5038285;28;20337;-66
2021/07/09 03:59:37;;;;;;;;;;;17.10;99.30;;;;;;5056151;28;19912;-66
2021/07/09 04:02:02;;;;;;;;;;;17.20;99.30;;;;;;5060072;28;19999;-68
2021/07/09 04:04:28;;;;;;;;;;;17.20;99.30;;;;;;5055390;28;19922;-66
2021/07/09 04:06:53;;;;;;;;;;;17.20;99.30;;;;;;5060570;28;20056;-66
2021/07/09 04:09:19;;;;;;;;;;;17.20;99.30;;;;;;5056013;28;19917;-67
2021/07/09 04:11:44;;;;;;;;;;;17.20;99.20;;;;;;5056872;28;19916;-65
2021/07/09 04:14:10;;;;;;;;;;;17.20;99.20;;;;;;5056289;28;20201;-68
2021/07/09 04:16:35;;;;;;;;;;;17.20;99.20;;;;;;5059273;28;19973;-65
2021/07/09 04:19:01;;;;;;;;;;;17.20;99.10;;;;;;5054289;28;19938;-67
2021/07/09 04:21:26;;;;;;;;;;;17.20;99.10;;;;;;5059061;28;20232;-66
2021/07/09 04:23:52;;;;;;;;;;;17.10;99.00;;;;;;5049160;28;19986;-67
2021/07/09 04:26:18;;;;;;;;;;;17.20;99.10;;;;;;5057947;28;19924;-66
2021/07/09 04:28:43;;;;;;;;;;;17.10;98.80;;;;;;5059208;28;19961;-66
2021/07/09 04:31:09;;;;;;;;;;;17.20;98.90;;;;;;5059522;28;20345;-67
2021/07/09 04:33:34;;;;;;;;;;;17.20;98.90;;;;;;5058500;28;20007;-68
2021/07/09 04:35:59;;;;;;;;;;;17.30;98.90;;;;;;5061811;28;20485;-67
2021/07/09 04:38:25;;;;;;;;;;;17.20;98.70;;;;;;5055629;28;19952;-67
2021/07/09 04:40:51;;;;;;;;;;;17.20;98.70;;;;;;5055861;28;19932;-67
2021/07/09 04:43:16;;;;;;;;;;;17.20;98.60;;;;;;5058765;28;20003;-67
2021/07/09 04:45:41;;;;;;;;;;;17.30;98.70;;;;;;5057791;28;20617;-68
2021/07/09 04:48:07;;;;;;;;;;;17.20;98.60;;;;;;5044842;28;19924;-67
2021/07/09 04:50:33;;;;;;;;;;;17.30;98.70;;;;;;5056908;28;20761;-67
2021/07/09 04:53:00;;;;;;;;;;;17.20;98.60;;;;;;5045631;28;20511;-67
2021/07/09 04:55:26;;;;;;;;;;;17.30;98.60;;;;;;5057086;28;19967;-70
2021/07/09 04:57:51;;;;;;;;;;;17.30;98.70;;;;;;5056848;28;19913;-70
2021/07/09 05:00:17;;;;;;;;;;;17.30;98.70;;;;;;5048718;28;20296;-66
2021/07/09 05:02:42;;;;;;;;;;;17.30;98.70;;;;;;5051811;28;19932;-69
2021/07/09 05:05:09;;;;;;;;;;;17.30;98.50;;;;;;5061741;28;19913;-68
2021/07/09 05:07:35;;;;;;;;;;;17.40;98.70;;;;;;5060624;28;19996;-69
2021/07/09 05:10:01;;;;;;;;;;;17.40;98.60;;;;;;5040119;28;20058;-71
2021/07/09 05:12:26;;;;;;;;;;;17.50;98.60;;;;;;5058910;28;19916;-68
2021/07/09 05:14:52;;;;;;;;;;;17.50;98.60;;;;;;5049458;28;19988;-67
2021/07/09 05:17:17;;;;;;;;;;;17.60;98.60;;;;;;5060767;28;20356;-67
2021/07/09 05:19:43;;;;;;;;;;;17.60;98.50;;;;;;5062418;28;19960;-68
2021/07/09 05:22:10;;;;;;;;;;;17.60;98.30;;;;;;5058932;28;19920;-68
2021/07/09 05:24:37;;;;;;;;;;;17.70;98.40;;;;;;5055256;28;20007;-68
2021/07/09 05:27:02;;;;;;;;;;;17.70;98.20;;;;;;5059394;28;19964;-68
2021/07/09 05:29:28;;;;;;;;;;;17.70;98.10;;;;;;5050880;28;19961;-69
2021/07/09 05:31:53;;;;;;;;;;;17.80;98.10;;;;;;5061708;28;19913;-67
2021/07/09 05:34:19;;;;;;;;;;;17.90;98.20;;;;;;5061185;28;20241;-68
2021/07/09 05:36:44;;;;;;;;;;;18.00;98.30;;;;;;5053970;28;19923;-68
2021/07/09 05:39:12;;;;;;;;;;;18.00;98.00;;;;;;5063368;28;19916;-68
2021/07/09 05:41:37;;;;;;;;;;;18.00;97.90;;;;;;5062247;28;19920;-69
2021/07/09 05:44:03;;;;;;;;;;;18.00;97.90;;;;;;5049932;28;19917;-67
2021/07/09 05:46:28;;;;;;;;;;;18.00;97.60;;;;;;5063554;28;20071;-69
2021/07/09 05:48:54;;;;;;;;;;;18.00;97.50;;;;;;5063872;28;20015;-68
2021/07/09 05:51:20;;;;;;;;;;;18.00;97.30;;;;;;5064530;28;20024;-68
2021/07/09 05:53:45;;;;;;;;;;;18.20;97.50;;;;;;5062723;28;19917;-66
2021/07/09 05:56:10;;;;;;;;;;;18.10;96.90;;;;;;5064380;28;19997;-67
2021/07/09 05:58:36;;;;;;;;;;;18.20;96.70;;;;;;5059868;28;19916;-69
2021/07/09 06:01:01;;;;;;;;;;;18.10;96.50;;;;;;5066183;28;19956;-67
2021/07/09 06:03:27;;;;;;;;;;;18.30;97.00;;;;;;5063010;28;20434;-67
2021/07/09 06:05:52;;;;;;;;;;;18.30;96.80;;;;;;5056915;28;20464;-67
2021/07/09 06:08:18;;;;;;;;;;;18.20;96.70;;;;;;5062818;28;19917;-68
2021/07/09 06:10:43;;;;;;;;;;;18.40;97.00;;;;;;5060134;28;19913;-67
2021/07/09 06:13:09;;;;;;;;;;;18.20;96.10;;;;;;5058844;28;20003;-68
2021/07/09 06:15:35;;;;;;;;;;;18.30;96.20;;;;;;5055628;28;19924;-67
2021/07/09 06:18:00;;;;;;;;;;;18.20;95.80;;;;;;5064618;28;19924;-67
2021/07/09 06:20:26;;;;;;;;;;;18.20;95.90;;;;;;5063146;28;20334;-68
2021/07/09 06:22:52;;;;;;;;;;;18.30;96.10;;;;;;5060251;28;19913;-67
2021/07/09 06:25:17;;;;;;;;;;;18.20;95.70;;;;;;5039458;28;19975;-67
2021/07/09 06:27:43;;;;;;;;;;;18.20;96.10;;;;;;5060048;28;19923;-67
2021/07/09 06:30:09;;;;;;;;;;;18.30;95.90;;;;;;5061855;28;19917;-68
2021/07/09 06:32:34;;;;;;;;;;;18.40;95.80;;;;;;5064534;28;19912;-68
2021/07/09 06:35:00;;;;;;;;;;;18.30;95.40;;;;;;5061344;28;19920;-69
2021/07/09 06:37:25;;;;;;;;;;;18.30;95.50;;;;;;5064276;28;20252;-67
2021/07/09 06:39:51;;;;;;;;;;;18.40;95.50;;;;;;5060269;28;19978;-68
2021/07/09 06:42:16;;;;;;;;;;;18.50;95.90;;;;;;5060488;28;20114;-68
2021/07/09 06:44:42;;;;;;;;;;;18.50;95.70;;;;;;5061735;28;20321;-67
2021/07/09 06:47:08;;;;;;;;;;;18.40;95.10;;;;;;5062862;28;20079;-68
2021/07/09 06:49:33;;;;;;;;;;;18.40;94.80;;;;;;5061374;28;20023;-68
2021/07/09 06:51:58;;;;;;;;;;;18.30;94.50;;;;;;5060505;28;19993;-66
2021/07/09 06:54:24;;;;;;;;;;;18.50;94.80;;;;;;5059464;28;19931;-67
2021/07/09 06:56:49;;;;;;;;;;;18.50;94.20;;;;;;5060310;28;20419;-69
2021/07/09 06:59:15;;;;;;;;;;;18.50;94.00;;;;;;5059774;28;19921;-68
2021/07/09 07:01:40;;;;;;;;;;;18.50;94.50;;;;;;5058333;28;19990;-68
2021/07/09 07:04:09;;;;;;;;;;;18.60;94.40;;;;;;5061104;28;19909;-69
2021/07/09 07:06:35;;;;;;;;;;;18.90;94.70;;;;;;5065122;28;20176;-68
2021/07/09 07:09:00;;;;;;;;;;;18.90;94.00;;;;;;5062886;28;19935;-69
2021/07/09 07:11:26;;;;;;;;;;;19.00;94.80;;;;;;5060412;28;20104;-68
2021/07/09 07:13:51;;;;;;;;;;;18.90;94.30;;;;;;5059574;28;19923;-68
2021/07/09 07:16:17;;;;;;;;;;;19.00;94.10;;;;;;5057834;28;19924;-69
2021/07/09 07:18:42;;;;;;;;;;;18.90;94.00;;;;;;5062974;28;20163;-66
2021/07/09 07:21:08;;;;;;;;;;;18.90;93.60;;;;;;5058319;28;19999;-68
2021/07/09 07:23:33;;;;;;;;;;;18.80;93.50;;;;;;5054622;28;19936;-69
2021/07/09 07:25:59;;;;;;;;;;;18.80;93.40;;;;;;5055070;28;19972;-68
2021/07/09 07:28:24;;;;;;;;;;;18.80;93.10;;;;;;5059973;28;19917;-68
2021/07/09 07:30:49;;;;;;;;;;;18.80;93.70;;;;;;5058716;28;20369;-70
2021/07/09 07:33:15;;;;;;;;;;;18.80;93.40;;;;;;5045025;28;19965;-68
2021/07/09 07:35:40;;;;;;;;;;;18.80;92.90;;;;;;5047069;28;20316;-68
2021/07/09 07:38:07;;;;;;;;;;;18.90;93.70;;;;;;5063545;28;19913;-69
2021/07/09 07:40:34;;;;;;;;;;;18.90;93.50;;;;;;5060189;28;19999;-67
2021/07/09 07:42:59;;;;;;;;;;;19.00;93.70;;;;;;5052855;28;19920;-68
2021/07/09 07:45:25;;;;;;;;;;;19.00;93.60;;;;;;5044279;28;19920;-68
2021/07/09 07:47:50;;;;;;;;;;;19.10;91.90;;;;;;5059348;28;20008;-66
2021/07/09 07:50:21;;;;;;;;;;;19.10;92.30;;;;;;5058267;28;19917;-67
2021/07/09 07:52:46;;;;;;;;;;;19.00;91.90;;;;;;5055309;28;19986;-68
2021/07/09 07:55:12;;;;;;;;;;;19.10;92.00;;;;;;5059334;28;20003;-68
2021/07/09 07:57:37;;;;;;;;;;;19.00;91.70;;;;;;5052273;28;19913;-67
2021/07/09 08:00:04;;;;;;;;;;;19.10;93.00;;;;;;5056932;28;20321;-68
2021/07/09 08:02:29;;;;;;;;;;;19.30;93.20;;;;;;5061131;28;19932;-67
2021/07/09 08:04:55;;;;;;;;;;;19.10;91.60;;;;;;5061701;28;20234;-68
2021/07/09 08:07:20;;;;;;;;;;;19.10;91.20;;;;;;5061822;28;20010;-68
2021/07/09 08:09:46;;;;;;;;;;;19.30;92.10;;;;;;5058549;28;19921;-68
2021/07/09 08:12:12;;;;;;;;;;;19.30;92.50;;;;;;5056356;28;19913;-68
2021/07/09 08:14:37;;;;;;;;;;;19.30;93.10;;;;;;5051552;28;19917;-69
2021/07/09 08:17:03;;;;;;;;;;;19.30;92.00;;;;;;5055003;28;20054;-68
2021/07/09 08:19:29;;;;;;;;;;;19.30;92.30;;;;;;5050519;28;19932;-68
2021/07/09 08:21:54;;;;;;;;;;;19.10;91.20;;;;;;5062488;28;20443;-67
2021/07/09 08:24:20;;;;;;;;;;;19.00;91.20;;;;;;5054285;28;19936;-68
2021/07/09 08:26:45;;;;;;;;;;;19.00;92.30;;;;;;5063054;28;19912;-69
2021/07/09 08:29:11;;;;;;;;;;;19.00;91.60;;;;;;5042009;28;19930;-67
2021/07/09 08:31:37;;;;;;;;;;;18.90;92.20;;;;;;5057860;28;19927;-67
2021/07/09 08:34:03;;;;;;;;;;;18.90;92.40;;;;;;5051311;28;19932;-67
2021/07/09 08:36:28;;;;;;;;;;;19.00;92.70;;;;;;5055472;28;20319;-68
2021/07/09 08:38:54;;;;;;;;;;;19.00;93.10;;;;;;5048769;28;20106;-70
2021/07/09 08:41:21;;;;;;;;;;;19.00;93.10;;;;;;5056519;28;19920;-67
2021/07/09 08:43:46;;;;;;;;;;;19.00;92.70;;;;;;5032524;28;20071;-69
2021/07/09 08:46:12;;;;;;;;;;;18.90;93.10;;;;;;5059517;28;20035;-68
2021/07/09 08:48:39;;;;;;;;;;;19.00;93.00;;;;;;5045604;28;19964;-67
2021/07/09 08:51:05;;;;;;;;;;;19.00;93.50;;;;;;5047053;28;20412;-67
2021/07/09 08:53:30;;;;;;;;;;;19.00;93.20;;;;;;5047959;28;19916;-67
2021/07/09 08:55:56;;;;;;;;;;;19.00;92.30;;;;;;5052456;28;19931;-67
2021/07/09 08:58:22;;;;;;;;;;;19.00;92.70;;;;;;5057444;28;20360;-67
2021/07/09 09:00:47;;;;;;;;;;;19.20;93.60;;;;;;5058260;28;19912;-67
2021/07/09 09:03:17;;;;;;;;;;;19.40;94.10;;;;;;5054610;28;19916;-69
2021/07/09 09:05:43;;;;;;;;;;;19.50;93.40;;;;;;5059952;28;19995;-67
2021/07/09 09:08:09;;;;;;;;;;;19.50;93.00;;;;;;5059341;28;19917;-71
2021/07/09 09:10:37;;;;;;;;;;;19.60;93.10;;;;;;5051513;28;19963;-69
2021/07/09 09:13:05;;;;;;;;;;;19.60;91.90;;;;;;5063685;28;19974;-68
2021/07/09 09:15:30;;;;;;;;;;;19.80;93.50;;;;;;5055718;28;19944;-68
2021/07/09 09:17:56;;;;;;;;;;;19.70;91.10;;;;;;5064784;28;19924;-68
2021/07/09 09:20:21;;;;;;;;;;;19.80;91.00;;;;;;5051386;28;19924;-68
2021/07/09 09:22:50;;;;;;;;;;;20.10;91.60;;;;;;5046919;28;19948;-70
2021/07/09 09:25:16;;;;;;;;;;;20.50;91.40;;;;;;5060519;28;20461;-70
2021/07/09 09:27:42;;;;;;;;;;;20.10;89.70;;;;;;5058925;28;19926;-68
2021/07/09 09:30:09;;;;;;;;;;;20.50;91.40;;;;;;5064173;28;20019;-68
2021/07/09 09:32:43;;;;;;;;;;;20.70;90.90;;;;;;5064084;28;20055;-68
2021/07/09 09:35:09;;;;;;;;;;;20.70;89.50;;;;;;5060884;28;20312;-69
2021/07/09 09:37:34;;;;;;;;;;;20.80;88.90;;;;;;5055448;28;19994;-67
2021/07/09 09:40:00;;;;;;;;;;;21.10;89.60;;;;;;5064117;28;19927;-68
2021/07/09 09:42:25;;;;;;;;;;;21.20;88.10;;;;;;5062999;28;20381;-68
2021/07/09 09:44:52;;;;;;;;;;;21.00;86.00;;;;;;5053455;28;19916;-69
2021/07/09 09:47:19;;;;;;;;;;;21.20;86.40;;;;;;5062373;28;19959;-68
2021/07/09 09:49:45;;;;;;;;;;;21.40;84.30;;;;;;5061119;28;19916;-67
2021/07/09 09:52:11;;;;;;;;;;;21.30;86.10;;;;;;5064576;28;20297;-67
2021/07/09 09:54:36;;;;;;;;;;;21.40;83.50;;;;;;5059662;28;19917;-68
2021/07/09 09:57:06;;;;;;;;;;;21.40;84.20;;;;;;5062664;28;19912;-69
2021/07/09 09:59:32;;;;;;;;;;;21.60;84.40;;;;;;5061201;28;20158;-69
2021/07/09 10:01:59;;;;;;;;;;;21.90;87.10;;;;;;5063710;28;19920;-68
2021/07/09 10:04:25;;;;;;;;;;;22.00;84.10;;;;;;5039396;28;20014;-69
2021/07/09 10:06:51;;;;;;;;;;;22.20;84.90;;;;;;5060349;28;19992;-68
2021/07/09 10:09:17;;;;;;;;;;;21.90;80.70;;;;;;5049058;28;19935;-68
2021/07/09 10:11:44;;;;;;;;;;;22.00;82.50;;;;;;5057664;28;20016;-68
2021/07/09 10:14:10;;;;;;;;;;;22.10;84.20;;;;;;5058063;28;19920;-68
2021/07/09 10:16:37;;;;;;;;;;;22.00;81.70;;;;;;5064428;28;20025;-68
2021/07/09 10:19:04;;;;;;;;;;;21.90;81.30;;;;;;5059477;28;19912;-67
2021/07/09 10:21:30;;;;;;;;;;;21.60;81.00;;;;;;5061067;28;20541;-67
2021/07/09 10:23:55;;;;;;;;;;;21.70;85.00;;;;;;5058497;28;20019;-69
2021/07/09 10:26:21;;;;;;;;;;;21.60;81.50;;;;;;5057661;28;19927;-68
2021/07/09 10:29:05;;;;;;;;;;;21.60;81.80;;;;;;5059415;28;19969;-68
2021/07/09 10:31:34;;;;;;;;;;;21.50;82.30;;;;;;5056884;28;19920;-68
2021/07/09 10:34:20;;;;;;;;;;;21.60;84.50;;;;;;5057011;28;20213;-68
2021/07/09 10:36:50;;;;;;;;;;;21.60;84.60;;;;;;5064591;28;19973;-68
2021/07/09 10:39:15;;;;;;;;;;;21.50;82.60;;;;;;5061686;28;19999;-68
2021/07/09 10:41:41;;;;;;;;;;;21.40;82.90;;;;;;5062361;28;20110;-68
2021/07/09 10:44:14;;;;;;;;;;;21.20;83.80;;;;;;5057331;28;19985;-69
2021/07/09 10:46:40;;;;;;;;;;;21.10;84.30;;;;;;5065076;28;20380;-68
2021/07/09 10:49:05;;;;;;;;;;;21.10;83.80;;;;;;5064814;28;19912;-69
2021/07/09 10:51:47;;;;;;;;;;;21.00;83.40;;;;;;5056905;28;19984;-68
2021/07/09 10:54:29;;;;;;;;;;;21.00;83.30;;;;;;5056382;28;19916;-70
2021/07/09 10:57:15;;;;;;;;;;;21.00;83.30;;;;;;5061948;28;19917;-68
2021/07/09 10:59:59;;;;;;;;;;;21.20;85.60;;;;;;5045758;28;20369;-68
2021/07/09 11:02:44;;;;;;;;;;;21.20;83.10;;;;;;5063535;28;19928;-68
2021/07/09 11:05:29;;;;;;;;;;;21.40;85.70;;;;;;5056485;28;19916;-68
2021/07/09 11:08:14;;;;;;;;;;;21.40;85.00;;;;;;5056284;28;19917;-68
2021/07/09 11:10:55;;;;;;;;;;;21.40;85.00;;;;;;5059469;28;20373;-68
2021/07/09 11:13:39;;;;;;;;;;;21.40;84.20;;;;;;5051951;28;19924;-69
2021/07/09 11:16:23;;;;;;;;;;;21.30;83.20;;;;;;5061423;28;20000;-70
2021/07/09 11:18:49;;;;;;;;;;;21.40;82.10;;;;;;5048020;28;19989;-69
2021/07/09 11:21:16;;;;;;;;;;;21.30;83.20;;;;;;5051071;28;19946;-68
2021/07/09 11:23:52;;;;;;;;;;;21.40;85.40;;;;;;5046525;28;19920;-68
2021/07/09 11:26:18;;;;;;;;;;;21.20;84.40;;;;;;5070722;28;19924;-70
2021/07/09 11:28:44;;;;;;;;;;;21.20;83.30;;;;;;5049276;28;19969;-69
2021/07/09 11:31:10;;;;;;;;;;;21.20;84.90;;;;;;5064136;28;19989;-68
2021/07/09 11:33:35;;;;;;;;;;;21.10;84.70;;;;;;5043088;28;20250;-71
2021/07/09 11:36:19;;;;;;;;;;;21.00;84.60;;;;;;5048436;28;20000;-69
2021/07/09 11:39:07;;;;;;;;;;;21.00;85.70;;;;;;5040535;28;19921;-68
2021/07/09 11:41:49;;;;;;;;;;;21.00;83.90;;;;;;5052234;28;19916;-67
2021/07/09 11:44:15;;;;;;;;;;;20.90;85.70;;;;;;5049530;28;19916;-69
2021/07/09 11:46:40;;;;;;;;;;;20.90;87.10;;;;;;5054633;28;19923;-68
2021/07/09 11:49:06;;;;;;;;;;;20.90;86.70;;;;;;5064463;28;19928;-68
2021/07/09 11:51:31;;;;;;;;;;;20.90;87.60;;;;;;5044774;28;20007;-68
2021/07/09 11:54:07;;;;;;;;;;;20.90;85.90;;;;;;5059513;28;19967;-68
2021/07/09 11:56:39;;;;;;;;;;;21.00;88.40;;;;;;5051817;28;20011;-68
2021/07/09 11:59:11;;;;;;;;;;;21.00;86.10;;;;;;5056740;28;20359;-68
2021/07/09 12:01:37;;;;;;;;;;;21.00;88.50;;;;;;5046578;28;21478;-69
2021/07/09 12:04:02;;;;;;;;;;;20.90;87.00;;;;;;5050589;28;20007;-69
2021/07/09 12:06:28;;;;;;;;;;;21.00;88.90;;;;;;5059111;28;19916;-69
2021/07/09 12:08:57;;;;;;;;;;;20.90;88.10;;;;;;5054252;28;20466;-69
2021/07/09 12:11:22;;;;;;;;;;;20.90;88.20;;;;;;5056114;28;20287;-68
2021/07/09 12:14:04;;;;;;;;;;;21.00;89.30;;;;;;5056299;28;20118;-68
2021/07/09 12:16:30;;;;;;;;;;;20.90;88.50;;;;;;5058427;28;19928;-68
2021/07/09 12:18:55;;;;;;;;;;;21.00;87.30;;;;;;5059274;28;19914;-68
2021/07/09 12:21:21;;;;;;;;;;;21.00;87.20;;;;;;5060479;28;19917;-68
2021/07/09 12:23:47;;;;;;;;;;;21.00;86.40;;;;;;5059043;28;19990;-69
2021/07/09 12:26:12;;;;;;;;;;;21.00;86.10;;;;;;5061779;28;19942;-68
2021/07/09 12:28:39;;;;;;;;;;;20.80;87.90;;;;;;5059879;28;20388;-67
2021/07/09 12:31:05;;;;;;;;;;;20.70;89.30;;;;;;5058598;28;19965;-67
2021/07/09 12:33:36;;;;;;;;;;;20.60;89.80;;;;;;5058801;28;20302;-68
2021/07/09 12:36:03;;;;;;;;;;;20.60;90.00;;;;;;5059307;28;19982;-67
2021/07/09 12:38:32;;;;;;;;;;;20.50;89.40;;;;;;5053709;28;19978;-68
2021/07/09 12:41:02;;;;;;;;;;;20.50;89.90;;;;;;5059129;28;19916;-68
2021/07/09 12:43:28;;;;;;;;;;;20.50;90.00;;;;;;5051668;28;19917;-68
2021/07/09 12:45:56;;;;;;;;;;;20.50;89.30;;;;;;5035981;28;20036;-68
2021/07/09 12:48:36;;;;;;;;;;;20.50;89.50;;;;;;5060707;28;19931;-68
2021/07/09 12:51:18;;;;;;;;;;;20.60;88.90;;;;;;5055426;28;20275;-67
2021/07/09 12:53:50;;;;;;;;;;;20.90;90.30;;;;;;5059314;28;19939;-68
2021/07/09 12:56:16;;;;;;;;;;;20.70;87.80;;;;;;5054232;28;19924;-67
2021/07/09 12:58:42;;;;;;;;;;;20.90;88.40;;;;;;5056092;28;19935;-69
2021/07/09 13:01:08;;;;;;;;;;;20.80;87.60;;;;;;5058060;28;20377;-67
2021/07/09 13:03:34;;;;;;;;;;;21.10;87.90;;;;;;5059796;28;19920;-69
2021/07/09 13:06:09;;;;;;;;;;;21.20;88.10;;;;;;5053542;28;19917;-66
2021/07/09 13:08:36;;;;;;;;;;;21.50;87.10;;;;;;5057351;28;20249;-69
2021/07/09 13:11:14;;;;;;;;;;;21.50;86.00;;;;;;5051879;28;20373;-69
2021/07/09 13:13:57;;;;;;;;;;;21.40;86.60;;;;;;5053732;28;20266;-67
2021/07/09 13:16:24;;;;;;;;;;;21.40;87.30;;;;;;5051369;28;19913;-69
2021/07/09 13:18:56;;;;;;;;;;;21.00;87.70;;;;;;5059766;28;19916;-67
2021/07/09 13:21:23;;;;;;;;;;;20.60;88.60;;;;;;5058872;28;20400;-67
2021/07/09 13:24:07;;;;;;;;;;;20.30;89.90;;;;;;5054744;28;20381;-67
2021/07/09 13:26:36;;;;;;;;;;;20.10;90.40;;;;;;5053556;28;20337;-67
2021/07/09 13:29:02;;;;;;;;;;;20.10;91.10;;;;;;5058654;28;20351;-67
2021/07/09 13:31:28;;;;;;;;;;;19.90;91.20;;;;;;5053138;28;19920;-67
2021/07/09 13:33:53;;;;;;;;;;;19.80;91.40;;;;;;5057418;28;19924;-68
2021/07/09 13:36:30;;;;;;;;;;;19.80;92.10;;;;;;5060928;28;20402;-69
2021/07/09 13:38:55;;;;;;;;;;;19.90;92.50;;;;;;5054465;28;19952;-68
2021/07/09 13:41:21;;;;;;;;;;;20.00;92.30;;;;;;5056420;28;19943;-69
2021/07/09 13:43:49;;;;;;;;;;;20.00;92.10;;;;;;5050333;28;19991;-69
2021/07/09 13:46:15;;;;;;;;;;;20.00;92.20;;;;;;5055455;28;20018;-67
2021/07/09 13:48:40;;;;;;;;;;;20.20;91.60;;;;;;5056508;28;20137;-66
2021/07/09 13:51:06;;;;;;;;;;;20.30;91.70;;;;;;5050668;28;19923;-70
2021/07/09 13:53:31;;;;;;;;;;;20.30;91.50;;;;;;5055509;28;20546;-67
2021/07/09 13:55:57;;;;;;;;;;;20.50;91.50;;;;;;5056065;28;20224;-68
2021/07/09 13:58:22;;;;;;;;;;;20.40;90.50;;;;;;5062013;28;20140;-68
2021/07/09 14:00:48;;;;;;;;;;;20.50;90.50;;;;;;5063737;28;20041;-69
2021/07/09 14:03:13;;;;;;;;;;;20.50;89.80;;;;;;5045364;28;19921;-68
2021/07/09 14:05:39;;;;;;;;;;;20.80;90.10;;;;;;5059408;28;19920;-69
2021/07/09 14:08:04;;;;;;;;;;;21.00;89.30;;;;;;5060700;28;19912;-68
2021/07/09 14:10:29;;;;;;;;;;;21.10;90.20;;;;;;5058342;28;19917;-68
2021/07/09 14:12:55;;;;;;;;;;;21.10;89.10;;;;;;5062041;28;20265;-69
2021/07/09 14:15:21;;;;;;;;;;;21.30;88.60;;;;;;5055239;28;20007;-68